Time;durP1;ratioP1;P1;durP2;ratioP2;P2;SDS_P1;SDS_P2;PMS_P1;PMS_P2;Temp;Humidity;BMP_temperature;BMP_pressure;BME280_temperature;BME280_humidity;BME280_pressure;Samples;Min_cycle;Max_cycle;Signal;HPM_P1;HPM_P2
2023/01/03 00:02:23;;;;;;;9.00;6.53;;;;;;;9.78;66.79;101204.19;5071688;28;20139;-52
2023/01/03 00:04:50;;;;;;;9.23;6.32;;;;;;;9.79;67.39;101211.41;5071902;28;20061;-52
2023/01/03 00:07:32;;;;;;;8.02;6.47;;;;;;;9.72;67.48;101211.72;5071651;28;20412;-53
2023/01/03 00:10:01;;;;;;;7.85;6.50;;;;;;;9.75;67.82;101203.63;5071734;28;20481;-54
2023/01/03 00:12:30;;;;;;;9.00;6.85;;;;;;;9.75;67.98;101209.19;5060813;28;20052;-53
2023/01/03 00:14:59;;;;;;;11.40;6.30;;;;;;;9.80;67.13;101210.28;5073983;28;20060;-51
2023/01/03 00:17:26;;;;;;;8.98;6.30;;;;;;;9.80;67.11;101199.16;5073664;28;20046;-52
2023/01/03 00:19:54;;;;;;;9.23;6.50;;;;;;;9.92;68.13;101206.00;5075118;28;20056;-54
2023/01/03 00:22:24;;;;;;;8.88;6.70;;;;;;;9.99;67.68;101211.22;5075476;28;20057;-52
2023/01/03 00:24:53;;;;;;;10.65;6.43;;;;;;;9.99;67.75;101210.38;5073581;28;20049;-52
2023/01/03 00:27:27;;;;;;;9.15;6.93;;;;;;;10.02;67.33;101207.88;5071215;28;20040;-51
2023/01/03 00:29:55;;;;;;;9.70;7.35;;;;;;;10.03;67.34;101205.91;5074880;28;20056;-52
2023/01/03 00:32:25;;;;;;;9.70;7.47;;;;;;;10.04;66.79;101205.63;5058540;28;20045;-51
2023/01/03 00:34:52;;;;;;;9.82;6.72;;;;;;;9.98;66.96;101204.00;5055037;28;20060;-54
2023/01/03 00:37:19;;;;;;;8.88;7.13;;;;;;;9.95;66.79;101199.00;5054895;28;20060;-52
2023/01/03 00:39:47;;;;;;;10.68;7.65;;;;;;;9.79;66.69;101201.09;5056860;28;20393;-55
2023/01/03 00:42:14;;;;;;;8.77;7.40;;;;;;;9.74;66.73;101207.56;5074547;28;20053;-53
2023/01/03 00:44:43;;;;;;;10.05;7.22;;;;;;;9.62;68.29;101215.44;5074871;28;20052;-51
2023/01/03 00:47:10;;;;;;;9.13;7.63;;;;;;;9.56;68.32;101213.81;5074604;28;20057;-54
2023/01/03 00:49:37;;;;;;;9.60;7.35;;;;;;;9.39;68.08;101216.16;5074759;28;20052;-52
2023/01/03 00:52:04;;;;;;;7.95;6.35;;;;;;;9.39;69.14;101225.34;5072626;28;20482;-54
2023/01/03 00:54:32;;;;;;;8.38;6.30;;;;;;;9.25;69.62;101222.34;5060419;28;20127;-54
2023/01/03 00:56:59;;;;;;;8.93;6.28;;;;;;;9.06;69.06;101233.28;5074694;28;20436;-54
2023/01/03 00:59:26;;;;;;;9.35;6.40;;;;;;;9.07;69.27;101214.66;5073882;28;20048;-56
2023/01/03 01:01:56;;;;;;;7.95;6.10;;;;;;;8.96;69.39;101221.41;5074259;28;20044;-55
2023/01/03 01:04:26;;;;;;;10.95;6.00;;;;;;;8.96;70.23;101226.94;5074632;28;20053;-54
2023/01/03 01:06:55;;;;;;;10.70;5.70;;;;;;;8.98;70.74;101224.72;5074366;28;20485;-51
2023/01/03 01:09:26;;;;;;;13.02;6.43;;;;;;;8.79;70.68;101233.69;5071151;28;20369;-53
2023/01/03 01:11:54;;;;;;;8.07;6.25;;;;;;;8.80;70.83;101235.38;5074117;28;20056;-54
2023/01/03 01:14:25;;;;;;;9.23;5.43;;;;;;;8.82;70.43;101235.91;5071875;28;20409;-52
2023/01/03 01:16:53;;;;;;;12.90;6.05;;;;;;;8.79;70.69;101236.47;5074110;28;20052;-55
2023/01/03 01:19:25;;;;;;;11.07;5.72;;;;;;;8.75;69.61;101243.69;5074289;28;20056;-53
2023/01/03 01:21:55;;;;;;;7.10;4.95;;;;;;;8.67;71.24;101245.13;5074052;28;20052;-57
2023/01/03 01:24:22;;;;;;;10.00;5.40;;;;;;;8.68;71.21;101248.72;5071048;28;20048;-54
2023/01/03 01:26:51;;;;;;;9.55;5.40;;;;;;;8.67;70.45;101250.69;5073120;28;20404;-53
2023/01/03 01:29:19;;;;;;;7.97;5.07;;;;;;;8.60;69.87;101252.09;5074186;28;20599;-53
2023/01/03 01:31:47;;;;;;;10.32;5.28;;;;;;;8.59;69.97;101248.50;5062153;28;20060;-54
2023/01/03 01:34:18;;;;;;;8.30;4.93;;;;;;;8.64;71.30;101247.63;5054055;28;20057;-53
2023/01/03 01:36:47;;;;;;;9.23;5.25;;;;;;;8.53;71.70;101253.22;5054903;28;20071;-52
2023/01/03 01:39:19;;;;;;;6.75;4.97;;;;;;;8.51;70.38;101263.78;5073968;28;20405;-52
2023/01/03 01:44:52;;;;;;;7.28;5.35;;;;;;;8.58;71.21;101270.97;5073967;28;20408;-54
2023/01/03 01:47:27;;;;;;;9.93;6.10;;;;;;;8.54;70.52;101268.75;5073796;28;20412;-55
2023/01/03 01:50:00;;;;;;;6.55;5.47;;;;;;;8.59;71.08;101275.41;5073741;28;20045;-53
2023/01/03 01:52:36;;;;;;;9.13;4.95;;;;;;;8.59;71.39;101279.03;5069835;28;20519;-53
2023/01/03 01:55:06;;;;;;;10.88;5.80;;;;;;;8.68;70.71;101287.63;5073286;28;20489;-53
2023/01/03 01:57:37;;;;;;;11.35;5.60;;;;;;;8.66;71.07;101281.50;5073193;28;20060;-54
2023/01/03 02:00:06;;;;;;;8.55;5.03;;;;;;;8.77;70.51;101288.69;5057361;28;20055;-53
2023/01/03 02:02:34;;;;;;;7.70;4.68;;;;;;;8.71;70.00;101298.16;5053184;28;20386;-55
2023/01/03 02:05:05;;;;;;;6.97;4.30;;;;;;;8.73;70.10;101309.81;5052767;28;20480;-53
2023/01/03 02:07:37;;;;;;;7.30;4.47;;;;;;;8.78;70.33;101297.84;5073002;28;20059;-52
2023/01/03 02:10:10;;;;;;;6.15;4.22;;;;;;;8.91;69.63;101312.00;5068146;28;20053;-53
2023/01/03 02:15:50;;;;;;;8.15;4.13;;;;;;;8.88;68.72;101304.22;5079092;28;20060;-54
2023/01/03 02:18:32;;;;;;;6.85;4.68;;;;;;;8.84;67.97;101297.56;5073061;28;20401;-54
2023/01/03 02:21:28;;;;;;;8.15;4.10;;;;;;;8.78;67.71;101309.81;5069036;28;20468;-54
2023/01/03 02:24:23;;;;;;;7.20;3.85;;;;;;;8.75;67.05;101310.34;5056159;28;20489;-51
2023/01/03 02:26:58;;;;;;;8.50;4.63;;;;;;;8.75;67.15;101307.59;5072710;28;20469;-54
2023/01/03 02:29:53;;;;;;;7.15;4.63;;;;;;;8.64;66.60;101304.00;5072906;28;20052;-54
2023/01/03 02:32:32;;;;;;;8.05;4.35;;;;;;;8.66;67.46;101306.50;5054793;28;20049;-53
2023/01/03 02:35:06;;;;;;;6.07;4.00;;;;;;;8.66;66.66;101301.78;5055394;28;20052;-53
2023/01/03 02:37:39;;;;;;;7.93;4.10;;;;;;;8.63;67.48;101307.06;5071379;28;20057;-53
2023/01/03 02:40:17;;;;;;;7.82;4.50;;;;;;;8.61;66.88;101303.72;5072908;28;20053;-55
2023/01/03 02:43:01;;;;;;;8.38;3.70;;;;;;;8.48;66.82;101311.53;5072133;28;20052;-53
2023/01/03 02:45:58;;;;;;;11.52;4.43;;;;;;;8.50;67.35;101309.31;5072616;28;20064;-53
2023/01/03 02:48:37;;;;;;;6.93;4.18;;;;;;;8.49;66.99;101318.75;5072557;28;20049;-54
2023/01/03 02:51:11;;;;;;;7.28;4.18;;;;;;;8.50;68.31;101316.78;5068527;28;20059;-50
2023/01/03 02:53:41;;;;;;;7.90;4.85;;;;;;;8.46;68.00;101318.47;5072380;28;20049;-54
2023/01/03 02:56:14;;;;;;;8.35;5.03;;;;;;;8.44;67.73;101313.22;5072037;28;20048;-52
2023/01/03 02:58:44;;;;;;;8.07;4.50;;;;;;;8.50;69.02;101322.34;5071393;28;20524;-53
2023/01/03 03:01:16;;;;;;;8.18;4.38;;;;;;;8.49;68.87;101323.47;5066952;28;20052;-54
2023/01/03 03:03:46;;;;;;;6.13;4.47;;;;;;;8.49;68.16;101332.63;5053563;28;20048;-55
2023/01/03 03:06:22;;;;;;;7.97;4.30;;;;;;;8.55;68.15;101325.13;5071154;28;20052;-54
2023/01/03 03:08:49;;;;;;;8.35;4.35;;;;;;;8.65;69.26;101327.91;5072215;28;20064;-51
2023/01/03 03:14:07;;;;;;;8.15;4.57;;;;;;;8.69;67.60;101322.59;5074990;28;20070;-52
2023/01/03 03:16:48;;;;;;;8.15;4.30;;;;;;;8.68;67.67;101329.28;5071852;28;20061;-54
2023/01/03 03:25:16;;;;;;;6.80;4.20;;;;;;;8.66;67.83;101329.56;5072317;28;20055;-53
2023/01/03 03:30:34;;;;;;;10.70;3.92;;;;;;;8.57;67.50;101338.72;5070637;28;20063;-53
2023/01/03 03:33:05;;;;;;;;;;;;;;;8.46;67.33;101335.97;5051330;28;20373;-54
2023/01/03 03:35:36;;;;;;;;;;;;;;;8.53;68.56;101328.19;5032941;28;19928;-54
2023/01/03 03:38:06;;;;;;;8.20;5.20;;;;;;;8.50;68.47;101333.44;5032086;28;19928;-52
2023/01/03 03:46:20;;;;;;;;;;;;;;;8.35;68.67;101334.25;5039108;28;20061;-54
2023/01/03 03:51:42;;;;;;;7.38;4.05;;;;;;;8.32;68.39;101334.84;5082018;28;20067;-54
2023/01/03 03:54:13;;;;;;;9.13;4.60;;;;;;;8.36;67.79;101335.94;5075948;28;20053;-53
2023/01/03 03:56:42;;;;;;;7.72;5.03;;;;;;;8.29;67.85;101341.78;5075824;28;20056;-52
2023/01/03 03:59:18;;;;;;;5.93;4.27;;;;;;;8.26;68.07;101334.00;5075243;28;20068;-53
2023/01/03 04:01:47;;;;;;;8.30;5.13;;;;;;;8.29;67.55;101341.78;5064023;28;20478;-51
2023/01/03 04:04:21;;;;;;;5.30;4.53;;;;;;;8.27;67.93;101337.59;5072640;28;20052;-54
2023/01/03 04:06:51;;;;;;;6.10;4.70;;;;;;;8.28;67.52;101340.09;5075434;28;20420;-53
2023/01/03 04:09:19;;;;;;;6.57;5.10;;;;;;;8.25;66.84;101337.03;5075539;28;20052;-52
2023/01/03 04:11:49;;;;;;;5.72;4.55;;;;;;;8.27;68.25;101341.22;5074815;28;20056;-53
2023/01/03 04:14:16;;;;;;;8.07;4.88;;;;;;;8.22;67.10;101332.88;5075119;28;20045;-53
2023/01/03 04:16:44;;;;;;;8.40;4.93;;;;;;;8.16;67.16;101336.78;5071080;28;20504;-52
2023/01/03 04:19:11;;;;;;;9.85;4.97;;;;;;;8.11;67.34;101334.84;5035551;28;20050;-53
2023/01/03 04:21:38;;;;;;;8.43;5.30;;;;;;;8.06;68.55;101331.22;5035220;28;20063;-54
2023/01/03 04:24:08;;;;;;;7.35;4.97;;;;;;;8.12;68.71;101344.81;5035376;28;20049;-51
2023/01/03 04:26:35;;;;;;;7.70;5.10;;;;;;;8.16;68.43;101349.81;5035340;28;20057;-53
2023/01/03 04:29:02;;;;;;;7.32;5.15;;;;;;;8.05;69.02;101343.44;5035048;28;20057;-53
2023/01/03 04:31:30;;;;;;;9.70;4.90;;;;;;;8.08;69.16;101340.94;5045379;28;20059;-53
2023/01/03 04:33:57;;;;;;;7.65;5.60;;;;;;;8.12;67.63;101342.03;5074942;28;20059;-52
2023/01/03 04:36:24;;;;;;;10.35;6.20;;;;;;;8.18;67.66;101351.19;5074980;28;20056;-54
2023/01/03 04:38:51;;;;;;;8.52;5.82;;;;;;;8.24;69.21;101343.72;5074719;28;20374;-53
2023/01/03 04:41:20;;;;;;;10.93;6.15;;;;;;;8.26;69.05;101341.50;5075048;28;20052;-53
2023/01/03 04:44:02;;;;;;;10.40;5.75;;;;;;;8.21;68.57;101345.13;5074626;28;20048;-52
2023/01/03 04:46:34;;;;;;;8.80;6.40;;;;;;;8.20;68.34;101342.59;5071313;28;20045;-54
2023/01/03 04:49:03;;;;;;;7.80;6.22;;;;;;;8.23;67.62;101348.44;5074707;28;20048;-53
2023/01/03 04:51:31;;;;;;;8.25;6.47;;;;;;;8.26;68.51;101349.81;5074489;28;20056;-54
2023/01/03 04:53:58;;;;;;;9.82;5.72;;;;;;;8.23;69.39;101344.81;5074654;28;20415;-54
2023/01/03 04:56:29;;;;;;;8.88;5.90;;;;;;;8.26;68.37;101349.81;5074651;28;20052;-52
2023/01/03 04:58:56;;;;;;;13.45;6.05;;;;;;;8.31;67.59;101345.09;5074153;28;20064;-52
2023/01/03 05:01:24;;;;;;;8.18;6.20;;;;;;;8.30;68.82;101356.50;5062421;28;20505;-52
2023/01/03 05:03:52;;;;;;;10.27;5.85;;;;;;;8.31;67.55;101355.38;5054475;28;20397;-52
2023/01/03 05:06:25;;;;;;;7.53;5.97;;;;;;;8.35;67.40;101350.94;5054187;28;20069;-50
2023/01/03 05:08:53;;;;;;;6.85;5.32;;;;;;;8.37;67.92;101356.22;5053802;28;20060;-51
2023/01/03 05:11:20;;;;;;;7.32;5.63;;;;;;;8.37;68.22;101362.59;5054431;28;20159;-51
2023/01/03 05:13:48;;;;;;;7.97;5.43;;;;;;;8.41;67.59;101363.72;5054258;28;20052;-52
2023/01/03 05:16:25;;;;;;;8.43;5.70;;;;;;;8.40;68.19;101363.97;5066049;28;20071;-52
2023/01/03 05:18:53;;;;;;;6.68;5.13;;;;;;;8.46;67.39;101360.97;5074041;28;20056;-53
2023/01/03 05:26:54;;;;;;;6.22;4.63;;;;;;;8.34;66.55;101371.47;5073940;28;20059;-55
2023/01/03 05:29:23;;;;;;;8.95;4.50;;;;;;;8.48;67.07;101364.28;5070957;28;20048;-52
2023/01/03 05:31:52;;;;;;;6.65;4.10;;;;;;;8.50;67.06;101370.41;5073863;28;20060;-53
2023/01/03 05:34:20;;;;;;;5.00;3.90;;;;;;;8.43;66.39;101369.00;5073893;28;20052;-53
2023/01/03 05:36:47;;;;;;;5.20;4.18;;;;;;;8.36;67.39;101368.41;5073637;28;20060;-52
2023/01/03 05:39:14;;;;;;;6.45;4.15;;;;;;;8.47;65.78;101361.78;5074030;28;20052;-54
2023/01/03 05:42:00;;;;;;;5.78;4.38;;;;;;;8.52;67.41;101365.41;5073917;28;20048;-51
2023/01/03 05:44:30;;;;;;;6.68;4.00;;;;;;;8.56;65.56;101362.06;5067794;28;20048;-51
2023/01/03 05:46:57;;;;;;;5.40;4.18;;;;;;;8.51;67.04;101363.72;5061149;28;20069;-54
2023/01/03 05:49:25;;;;;;;5.75;4.35;;;;;;;8.52;65.62;101359.84;5073356;28;20056;-52
2023/01/03 05:51:52;;;;;;;6.65;4.32;;;;;;;8.45;66.47;101367.63;5073500;28;20481;-49
2023/01/03 05:54:20;;;;;;;6.85;4.40;;;;;;;8.30;66.16;101368.41;5073769;28;20070;-54
2023/01/03 05:56:47;;;;;;;8.00;4.93;;;;;;;8.24;67.15;101366.75;5071649;28;20048;-51
2023/01/03 05:59:18;;;;;;;7.25;5.07;;;;;;;8.19;67.14;101372.31;5069587;28;20421;-56
2023/01/03 06:01:46;;;;;;;7.45;5.28;;;;;;;8.13;67.08;101377.00;5063125;28;20041;-54
2023/01/03 06:04:13;;;;;;;10.30;6.78;;;;;;;8.14;66.63;101383.38;5053586;28;20071;-52
2023/01/03 06:06:44;;;;;;;7.20;5.20;;;;;;;8.04;67.76;101380.59;5053160;28;20060;-55
2023/01/03 06:09:11;;;;;;;6.25;4.70;;;;;;;7.98;67.66;101379.78;5053313;28;20405;-52
2023/01/03 06:11:39;;;;;;;9.75;5.00;;;;;;;7.93;68.06;101380.56;5053034;28;20053;-56
2023/01/03 06:14:10;;;;;;;6.32;5.18;;;;;;;7.88;67.90;101374.19;5057128;28;20063;-52
2023/01/03 06:19:38;;;;;;;7.28;5.97;;;;;;;7.73;68.46;101373.06;5031659;28;20149;-54
2023/01/03 06:22:05;;;;;;;6.55;5.10;;;;;;;7.71;68.64;101375.25;5062730;28;20063;-51
2023/01/03 06:24:35;;;;;;;7.68;5.00;;;;;;;7.69;68.70;101371.94;5073154;28;20052;-55
2023/01/03 06:27:03;;;;;;;9.88;5.47;;;;;;;7.71;68.26;101366.94;5072806;28;20462;-55
2023/01/03 06:29:30;;;;;;;10.77;5.35;;;;;;;7.73;67.67;101375.00;5069571;28;20052;-53
2023/01/03 06:31:57;;;;;;;8.02;5.13;;;;;;;7.77;68.06;101375.25;5072554;28;20401;-55
2023/01/03 06:34:24;;;;;;;9.13;5.38;;;;;;;7.83;68.81;101382.50;5068032;28;20481;-54
2023/01/03 06:36:53;;;;;;;9.43;6.70;;;;;;;7.89;68.20;101375.84;5053637;28;20053;-53
2023/01/03 06:39:20;;;;;;;7.53;5.43;;;;;;;7.95;68.80;101380.31;5053140;28;20049;-52
2023/01/03 06:41:48;;;;;;;7.50;4.95;;;;;;;7.99;67.73;101378.66;5047857;28;20474;-54
2023/01/03 06:44:15;;;;;;;12.27;5.95;;;;;;;7.97;67.76;101380.88;5046851;28;20063;-53
2023/01/03 06:55:14;;;;;;;8.45;5.35;;;;;;;7.87;67.72;101389.16;5056095;28;20297;-54
2023/01/03 06:57:41;;;;;;;10.60;6.10;;;;;;;7.93;68.91;101390.84;5042042;28;20041;-52
2023/01/03 07:00:10;;;;;;;10.00;6.20;;;;;;;7.97;67.48;101388.38;5046293;28;20060;-55
2023/01/03 07:02:38;;;;;;;7.32;5.45;;;;;;;8.01;67.77;101384.75;5042621;28;20053;-54
2023/01/03 07:05:06;;;;;;;7.68;5.28;;;;;;;8.04;69.01;101388.91;5037537;28;20057;-55
2023/01/03 07:07:34;;;;;;;8.55;5.38;;;;;;;8.03;67.64;101387.25;5033831;28;20068;-54
2023/01/03 07:10:01;;;;;;;9.27;5.40;;;;;;;8.04;69.15;101388.91;5031980;28;20045;-54
2023/01/03 07:15:13;;;;;;;7.38;4.95;;;;;;;7.94;68.61;101384.19;5055869;28;20063;-54
2023/01/03 07:17:41;;;;;;;9.18;5.38;;;;;;;8.01;68.05;101384.75;5051614;28;20053;-55
2023/01/03 07:20:09;;;;;;;8.60;5.72;;;;;;;8.09;68.59;101386.16;5051814;28;20057;-54
2023/01/03 07:22:37;;;;;;;9.07;5.43;;;;;;;8.03;67.67;101393.63;5048159;28;20053;-54
2023/01/03 07:25:05;;;;;;;9.10;4.78;;;;;;;8.04;68.19;101384.22;5037136;28;20048;-56
2023/01/03 07:27:32;;;;;;;8.82;5.55;;;;;;;8.11;67.50;101382.00;5038364;28;20053;-55
2023/01/03 07:30:00;;;;;;;7.65;5.07;;;;;;;8.18;67.83;101397.56;5049277;28;20045;-53
2023/01/03 07:32:27;;;;;;;7.75;4.93;;;;;;;8.25;68.53;101390.63;5049110;28;20409;-55
2023/01/03 07:34:54;;;;;;;6.85;4.68;;;;;;;8.29;67.06;101396.44;5046760;28;20072;-51
2023/01/03 07:37:21;;;;;;;9.93;5.30;;;;;;;8.32;68.46;101396.72;5049373;28;20425;-55
2023/01/03 07:39:50;;;;;;;8.48;4.78;;;;;;;8.38;66.86;101393.94;5049864;28;20073;-55
2023/01/03 07:45:02;;;;;;;8.82;5.97;;;;;;;8.21;68.60;101406.16;5050446;28;20413;-40
2023/01/03 07:47:29;;;;;;;11.13;5.90;;;;;;;8.09;68.67;101402.81;5048898;28;20490;-40
2023/01/03 07:49:56;;;;;;;8.55;5.75;;;;;;;8.42;68.93;101407.06;5049241;28;20053;-41
2023/01/03 07:52:24;;;;;;;7.10;4.70;;;;;;;8.59;68.89;101414.25;5049695;28;20049;-40
2023/01/03 07:54:52;;;;;;;7.88;5.10;;;;;;;8.80;68.27;101413.16;5047302;28;20053;-41
2023/01/03 07:57:19;;;;;;;14.25;5.78;;;;;;;8.89;67.63;101408.69;5040907;28;20064;-52
2023/01/03 07:59:47;;;;;;;7.35;5.10;;;;;;;9.01;67.26;101407.53;5047044;28;20402;-53
2023/01/03 08:02:14;;;;;;;6.93;4.78;;;;;;;9.12;67.19;101410.03;5051119;28;20049;-56
2023/01/03 08:04:41;;;;;;;8.65;5.05;;;;;;;9.22;66.02;101413.88;5051859;28;20421;-55
2023/01/03 08:07:08;;;;;;;8.63;4.72;;;;;;;9.32;66.17;101405.50;5050863;28;20401;-54
2023/01/03 08:15:07;;;;;;;6.63;3.67;;;;;;;9.56;64.78;101408.50;5057387;28;20159;-54
2023/01/03 08:17:34;;;;;;;7.30;3.40;;;;;;;9.61;64.65;101410.41;5051235;28;20132;-54
2023/01/03 08:20:02;;;;;;;7.65;4.25;;;;;;;9.66;64.83;101408.47;5051400;28;20407;-54
2023/01/03 08:22:29;;;;;;;7.72;3.80;;;;;;;9.62;65.15;101401.81;5051367;28;20386;-55
2023/01/03 08:24:56;;;;;;;5.30;3.70;;;;;;;9.72;65.03;101407.31;5050621;28;20060;-52
2023/01/03 08:27:25;;;;;;;7.30;3.65;;;;;;;9.82;64.33;101400.03;5051700;28;20049;-53
2023/01/03 08:29:52;;;;;;;7.65;3.67;;;;;;;9.83;63.64;101407.28;5050598;28;20060;-55
2023/01/03 08:32:20;;;;;;;6.20;3.72;;;;;;;9.85;64.26;101407.78;5051506;28;20395;-54
2023/01/03 08:34:48;;;;;;;6.65;3.38;;;;;;;9.71;64.28;101388.94;5051424;28;20075;-55
2023/01/03 08:37:16;;;;;;;8.18;3.15;;;;;;;9.67;63.64;101395.38;5053797;28;20053;-51
2023/01/03 08:39:52;;;;;;;5.82;2.90;;;;;;;9.52;64.77;101391.53;5054110;28;20409;-55
2023/01/03 08:42:22;;;;;;;4.72;2.83;;;;;;;9.54;63.98;101402.38;5054030;28;20417;-54
2023/01/03 08:44:54;;;;;;;;;;;;;;;9.49;63.88;101391.28;5055761;28;20056;-52
2023/01/03 08:47:21;;;;;;;6.05;3.13;;;;;;;10.80;63.28;101398.22;5054804;28;19920;-53
2023/01/03 08:49:48;;;;;;;4.80;2.50;;;;;;;13.50;54.82;101377.72;5054693;28;20060;-50
2023/01/03 08:52:16;;;;;;;5.43;2.22;;;;;;;15.46;48.85;101396.16;5054074;28;20053;-52
2023/01/03 08:54:43;;;;;;;3.53;2.08;;;;;;;16.69;45.35;101393.13;5054306;28;20072;-51
2023/01/03 08:57:11;;;;;;;6.20;2.20;;;;;;;15.98;46.62;101385.06;5053833;28;20457;-53
2023/01/03 08:59:38;;;;;;;4.90;2.45;;;;;;;16.81;44.97;101390.50;5053817;28;20056;-54
2023/01/03 09:02:07;;;;;;;3.75;2.00;;;;;;;18.08;42.90;101397.41;5053714;28;20049;-51
2023/01/03 09:04:34;;;;;;;4.63;2.00;;;;;;;19.88;38.81;101390.47;5054528;28;20489;-50
2023/01/03 09:07:01;;;;;;;3.65;1.73;;;;;;;21.04;36.20;101390.66;5053923;28;20056;-53
2023/01/03 09:09:29;;;;;;;3.78;2.15;;;;;;;21.73;34.57;101378.19;5053518;28;20049;-53
2023/01/03 09:11:56;;;;;;;3.00;1.67;;;;;;;21.67;34.03;101398.34;5053076;28;20053;-54
2023/01/03 09:14:23;;;;;;;3.83;1.80;;;;;;;22.84;32.23;101380.59;5052341;28;20052;-53
2023/01/03 09:16:50;;;;;;;2.95;1.75;;;;;;;22.87;31.92;101386.38;5050920;28;20060;-55
2023/01/03 09:19:19;;;;;;;2.63;1.65;;;;;;;19.57;36.46;101393.84;5053295;28;20068;-53
2023/01/03 09:21:46;;;;;;;3.50;1.90;;;;;;;20.92;35.26;101396.38;5054163;28;20128;-53
2023/01/03 09:24:13;;;;;;;3.35;1.77;;;;;;;20.66;35.27;101383.53;5053795;28;20049;-53
2023/01/03 09:26:41;;;;;;;3.20;1.63;;;;;;;19.26;38.57;101381.97;5054243;28;20118;-54
2023/01/03 09:29:08;;;;;;;3.17;1.60;;;;;;;22.73;32.92;101386.09;5053635;28;20053;-53
2023/01/03 09:31:35;;;;;;;4.90;3.50;;;;;;;22.71;32.42;101394.16;5053219;28;20060;-53
2023/01/03 09:34:04;;;;;;;8.13;5.20;;;;;;;22.61;31.63;101389.91;5053110;28;20056;-54
2023/01/03 09:36:33;;;;;;;3.17;1.70;;;;;;;24.21;30.03;101390.25;5054019;28;20049;-54
2023/01/03 09:39:00;;;;;;;2.67;1.33;;;;;;;25.30;28.64;101370.31;5053764;28;20496;-55
2023/01/03 09:41:28;;;;;;;4.28;1.73;;;;;;;22.22;32.04;101378.53;5053678;28;20500;-54
2023/01/03 09:43:59;;;;;;;2.72;1.70;;;;;;;21.58;33.81;101385.53;5053836;28;20466;-54
2023/01/03 09:46:29;;;;;;;3.15;2.00;;;;;;;20.19;35.11;101384.16;5053020;28;20054;-55
2023/01/03 09:48:56;;;;;;;4.50;1.90;;;;;;;19.55;37.05;101373.59;5053294;28;20053;-54
2023/01/03 10:06:00;;;;;;;3.38;1.70;;;;;;;14.75;48.28;101394.97;5058652;28;20059;-53
2023/01/03 10:08:38;;;;;;;4.93;2.10;;;;;;;14.16;48.73;101405.38;5053425;28;20474;-54
2023/01/03 10:11:11;;;;;;;3.92;2.28;;;;;;;13.59;50.26;101406.63;5053130;28;20163;-54
2023/01/03 10:13:56;;;;;;;3.80;2.10;;;;;;;13.10;51.46;101404.50;5052883;28;20401;-53
2023/01/03 10:16:35;;;;;;;3.47;1.55;;;;;;;13.15;52.25;101410.00;5052963;28;20429;-51
2023/01/03 10:19:24;;;;;;;3.20;1.67;;;;;;;13.02;52.45;101413.59;5051887;28;20053;-54
2023/01/03 10:21:55;;;;;;;;;;;;;;;12.57;54.13;101402.91;5052260;28;20053;-50
2023/01/03 10:24:24;;;;;;;4.60;2.50;;;;;;;12.35;59.02;101409.16;5051505;28;19921;-53
2023/01/03 10:26:55;;;;;;;5.55;2.80;;;;;;;11.73;64.55;101409.97;5050578;28;20498;-53
2023/01/03 10:29:22;;;;;;;6.68;2.85;;;;;;;11.78;63.13;101409.94;5051490;28;20049;-54
2023/01/03 10:32:11;;;;;;;6.18;2.78;;;;;;;11.25;64.05;101415.59;5047709;28;20494;-54
2023/01/03 10:34:38;;;;;;;4.13;2.33;;;;;;;11.35;63.57;101418.25;5037742;28;20060;-55
2023/01/03 10:37:18;;;;;;;4.50;2.22;;;;;;;11.27;63.12;101413.31;5051065;28;20068;-56
2023/01/03 10:39:45;;;;;;;4.13;2.30;;;;;;;12.53;59.58;101410.25;5050783;28;20056;-56
2023/01/03 10:42:22;;;;;;;4.65;2.17;;;;;;;14.26;53.91;101404.28;5051570;28;20060;-55
2023/01/03 10:45:01;;;;;;;5.95;2.22;;;;;;;16.88;46.52;101401.25;5050828;28;20056;-53
2023/01/03 10:47:28;;;;;;;3.70;2.20;;;;;;;17.96;43.03;101394.50;5049792;28;20049;-56
2023/01/03 10:50:00;;;;;;;2.90;1.70;;;;;;;18.16;43.53;101376.75;5052238;28;20048;-54
2023/01/03 10:52:32;;;;;;;4.13;1.70;;;;;;;17.68;42.44;101389.34;5052083;28;20045;-54
2023/01/03 10:55:02;;;;;;;5.20;2.03;;;;;;;16.06;46.92;101394.66;5051983;28;20074;-55
2023/01/03 10:57:43;;;;;;;4.47;1.80;;;;;;;16.00;47.96;101388.38;5051641;28;20053;-56
2023/01/03 11:00:26;;;;;;;2.78;1.60;;;;;;;18.20;43.77;101377.72;5050229;28;20497;-55
2023/01/03 11:02:57;;;;;;;3.15;1.88;;;;;;;20.35;38.61;101380.56;5050355;28;20059;-55
2023/01/03 11:05:26;;;;;;;3.65;1.45;;;;;;;18.93;39.87;101376.38;5052230;28;20405;-55
2023/01/03 11:07:56;;;;;;;3.72;1.60;;;;;;;20.25;37.46;101362.91;5052222;28;20529;-55
2023/01/03 11:10:26;;;;;;;3.80;2.13;;;;;;;17.87;41.27;101365.53;5051531;28;20076;-56
2023/01/03 11:12:54;;;;;;;5.10;1.60;;;;;;;18.51;41.03;101356.72;5051923;28;20389;-54
2023/01/03 11:15:35;;;;;;;2.70;1.40;;;;;;;19.15;39.79;101348.88;5051219;28;20057;-55
2023/01/03 11:18:04;;;;;;;5.57;1.77;;;;;;;19.19;40.55;101369.59;5051761;28;20049;-55
2023/01/03 11:20:39;;;;;;;3.60;1.73;;;;;;;20.38;38.50;101360.03;5051630;28;20052;-55
2023/01/03 11:23:16;;;;;;;3.22;1.50;;;;;;;17.89;42.36;101366.03;5051887;28;20052;-56
2023/01/03 11:25:51;;;;;;;2.55;1.30;;;;;;;17.85;42.07;101355.44;5052106;28;20064;-55
2023/01/03 11:28:43;;;;;;;3.15;1.50;;;;;;;16.41;44.97;101365.38;5051843;28;20405;-55
2023/01/03 11:31:20;;;;;;;3.67;1.60;;;;;;;15.06;47.85;101352.09;5050873;28;20053;-56
2023/01/03 11:34:07;;;;;;;5.18;1.67;;;;;;;14.16;50.40;101366.16;5051452;28;20052;-55
2023/01/03 11:36:48;;;;;;;3.90;1.73;;;;;;;14.64;50.25;101359.94;5051866;28;20074;-55
2023/01/03 11:39:43;;;;;;;2.30;1.50;;;;;;;14.94;48.59;101361.09;5051574;28;20448;-52
2023/01/03 11:42:34;;;;;;;4.95;2.08;;;;;;;15.34;47.89;101354.66;5051678;28;20057;-55
2023/01/03 11:45:34;;;;;;;3.60;1.70;;;;;;;17.01;44.67;101355.19;5051760;28;20378;-54
2023/01/03 11:48:18;;;;;;;4.30;2.30;;;;;;;21.97;35.11;101334.59;5050880;28;20053;-53
2023/01/03 11:50:53;;;;;;;3.47;1.90;;;;;;;25.11;30.29;101340.81;5051730;28;20057;-54
2023/01/03 11:53:34;;;;;;;3.25;2.40;;;;;;;24.88;29.92;101337.31;5051190;28;20049;-54
2023/01/03 11:56:20;;;;;;;4.68;1.58;;;;;;;23.80;31.49;101333.13;5051460;28;20060;-55
2023/01/03 11:59:00;;;;;;;4.28;1.60;;;;;;;21.11;35.18;101335.38;5051700;28;20501;-55
2023/01/03 12:01:53;;;;;;;2.08;1.50;;;;;;;18.83;38.69;101326.00;5050449;28;20064;-55
2023/01/03 12:04:26;;;;;;;3.25;1.88;;;;;;;16.91;43.00;101332.22;5049679;28;20049;-56
2023/01/03 12:07:09;;;;;;;3.40;1.30;;;;;;;15.23;46.66;101338.13;5041835;28;20048;-55
2023/01/03 12:09:44;;;;;;;3.58;1.40;;;;;;;15.04;48.29;101331.94;5050793;28;20053;-55
2023/01/03 12:12:48;;;;;;;3.33;1.38;;;;;;;14.44;50.06;101327.63;5043154;28;20057;-56
2023/01/03 12:15:21;;;;;;;3.88;1.80;;;;;;;14.09;50.59;101324.56;5037996;28;20052;-55
2023/01/03 12:17:57;;;;;;;4.15;2.03;;;;;;;13.83;51.60;101329.94;5054892;28;20045;-55
2023/01/03 12:20:28;;;;;;;4.70;1.58;;;;;;;13.22;53.05;101328.47;5055302;28;20049;-55
2023/01/03 12:23:03;;;;;;;4.30;2.20;;;;;;;13.94;52.04;101319.31;5054555;28;20053;-54
2023/01/03 12:25:34;;;;;;;3.70;1.50;;;;;;;13.55;51.91;101318.00;5054815;28;20053;-55
2023/01/03 12:28:11;;;;;;;4.78;2.00;;;;;;;13.58;52.17;101323.75;5054716;28;20049;-55
2023/01/03 12:30:47;;;;;;;5.55;1.70;;;;;;;13.60;52.32;101320.66;5054860;28;20490;-54
2023/01/03 12:33:29;;;;;;;3.95;1.63;;;;;;;14.88;49.99;101323.09;5054489;28;20406;-55
2023/01/03 12:36:01;;;;;;;4.78;3.03;;;;;;;15.29;48.42;101316.34;5054757;28;20064;-54
2023/01/03 12:38:32;;;;;;;3.97;1.67;;;;;;;15.89;46.68;101311.19;5053876;28;20076;-56
2023/01/03 12:41:08;;;;;;;4.60;3.47;;;;;;;16.84;45.20;101305.44;5054835;28;20057;-55
2023/01/03 12:43:44;;;;;;;6.22;5.68;;;;;;;18.83;40.75;101312.72;5054788;28;20053;-54
2023/01/03 12:46:17;;;;;;;4.57;3.47;;;;;;;17.84;42.58;101296.59;5054442;28;20053;-56
2023/01/03 12:48:58;;;;;;;15.73;15.02;;;;;;;20.36;38.46;101300.16;5054774;28;20060;-55
2023/01/03 12:51:26;;;;;;;9.95;9.45;;;;;;;19.66;38.60;101296.47;5054421;28;20056;-55
2023/01/03 12:54:07;;;;;;;8.98;8.45;;;;;;;19.45;40.20;101290.97;5054418;28;20413;-55
2023/01/03 12:56:57;;;;;;;19.58;18.67;;;;;;;21.79;35.16;101285.97;5053926;28;20053;-55
2023/01/03 12:59:51;;;;;;;13.57;12.98;;;;;;;23.83;32.64;101286.84;5053839;28;20049;-55
2023/01/03 13:02:27;;;;;;;3.03;1.85;;;;;;;24.36;30.21;101271.66;5054410;28;20508;-54